createdAt,value
2024-03-12T00:02:11.132Z,52.04
2024-03-12T00:03:13.699Z,52.19
2024-03-12T00:04:16.041Z,52.17
2024-03-12T00:05:19.845Z,52.16
2024-03-12T00:06:22.899Z,52.11
2024-03-12T00:07:25.344Z,52.08
2024-03-12T00:08:27.999Z,52.12
2024-03-12T00:09:30.342Z,52.12
2024-03-12T00:10:33.146Z,52.18
2024-03-12T00:11:36.482Z,52.14
2024-03-12T00:12:39.111Z,52.14
2024-03-12T00:13:41.654Z,52.18
2024-03-12T00:14:43.933Z,52.23
2024-03-12T00:15:46.408Z,52.27
2024-03-12T00:16:48.752Z,52.29
2024-03-12T00:17:52.505Z,52.40
2024-03-12T00:18:55.050Z,52.44
2024-03-12T00:19:57.199Z,52.47
2024-03-12T00:20:59.942Z,52.59
2024-03-12T00:22:02.210Z,52.57
2024-03-12T00:23:04.853Z,52.56
2024-03-12T00:24:07.220Z,52.62
2024-03-12T00:25:10.049Z,52.59
2024-03-12T00:26:13.076Z,52.71
2024-03-12T00:27:15.241Z,52.66
2024-03-12T00:28:17.892Z,52.83
2024-03-12T00:29:20.464Z,52.76
2024-03-12T00:30:23.851Z,52.79
2024-03-12T00:31:26.279Z,52.74
2024-03-12T00:32:28.760Z,52.72
2024-03-12T00:33:31.454Z,52.60
2024-03-12T00:34:34.268Z,52.60
2024-03-12T00:35:37.009Z,52.62
2024-03-12T00:36:39.641Z,52.62
2024-03-12T00:37:42.245Z,52.68
2024-03-12T00:38:44.706Z,52.68
2024-03-12T00:39:47.442Z,52.61
2024-03-12T00:40:50.063Z,52.62
2024-03-12T00:41:52.525Z,52.70
2024-03-12T00:42:55.094Z,52.80
2024-03-12T00:43:59.055Z,52.82
2024-03-12T00:45:01.490Z,52.91
2024-03-12T00:46:05.310Z,52.91
2024-03-12T00:47:07.789Z,52.86
2024-03-12T00:48:12.875Z,52.94
2024-03-12T00:49:15.351Z,52.88
2024-03-12T00:50:18.292Z,52.84
2024-03-12T00:51:20.593Z,52.83
2024-03-12T00:52:22.949Z,52.81
2024-03-12T00:53:25.449Z,52.79
2024-03-12T00:54:27.843Z,52.91
2024-03-12T00:55:31.583Z,53.04
2024-03-12T00:56:34.237Z,53.05
2024-03-12T00:57:37.204Z,53.11
2024-03-12T00:58:39.628Z,53.27
2024-03-12T00:59:42.094Z,53.38
2024-03-12T01:00:44.546Z,53.52
2024-03-12T01:01:47.152Z,53.75
2024-03-12T01:02:49.686Z,53.82
2024-03-12T01:03:52.096Z,53.95
2024-03-12T01:04:54.614Z,54.06
2024-03-12T01:05:58.100Z,54.03
2024-03-12T01:07:00.906Z,54.05
2024-03-12T01:08:03.853Z,54.07
2024-03-12T01:09:06.215Z,54.24
2024-03-12T01:10:09.340Z,54.30
2024-03-12T01:11:11.673Z,54.35
2024-03-12T01:12:14.117Z,54.51
2024-03-12T01:13:16.629Z,54.49
2024-03-12T01:14:19.257Z,54.38
2024-03-12T01:15:22.366Z,54.33
2024-03-12T01:16:25.027Z,54.51
2024-03-12T01:17:27.572Z,54.61
2024-03-12T01:18:29.940Z,54.58
2024-03-12T01:19:33.165Z,54.58
2024-03-12T01:20:36.354Z,54.63
2024-03-12T01:21:38.893Z,54.71
2024-03-12T01:22:41.204Z,54.68
2024-03-12T01:23:43.555Z,54.62
2024-03-12T01:24:45.773Z,54.60
2024-03-12T01:25:48.105Z,54.54
2024-03-12T01:26:50.676Z,54.52
2024-03-12T01:27:52.965Z,54.43
2024-03-12T01:28:55.622Z,54.34
2024-03-12T01:29:58.070Z,54.23
2024-03-12T01:31:00.767Z,54.14
2024-03-12T01:32:03.156Z,54.13
2024-03-12T01:33:06.056Z,54.05
2024-03-12T01:34:08.790Z,54.06
2024-03-12T01:35:11.085Z,54.06
2024-03-12T01:36:13.673Z,54.19
2024-03-12T01:37:16.138Z,54.18
2024-03-12T01:38:18.461Z,54.12
2024-03-12T01:39:20.836Z,54.11
2024-03-12T01:40:24.253Z,54.10
2024-03-12T01:41:26.838Z,54.12
2024-03-12T01:42:29.261Z,53.97
2024-03-12T01:43:31.648Z,53.89
2024-03-12T01:44:34.823Z,53.81
2024-03-12T01:45:37.345Z,53.85
2024-03-12T01:46:40.305Z,53.93
2024-03-12T01:47:42.694Z,53.87
2024-03-12T01:48:45.232Z,53.89
2024-03-12T01:49:48.255Z,54.08
2024-03-12T01:50:51.067Z,54.09
2024-03-12T01:51:53.313Z,54.11
2024-03-12T01:54:08.481Z,54.02
2024-03-12T01:55:14.789Z,54.07
2024-03-12T01:56:17.396Z,54.06
2024-03-12T01:57:19.859Z,54.14
2024-03-12T01:58:22.358Z,54.01
2024-03-12T01:59:25.003Z,54.03
2024-03-12T02:00:27.603Z,54.06
2024-03-12T02:01:29.914Z,54.00
2024-03-12T02:02:32.598Z,54.00
2024-03-12T02:03:35.153Z,54.01
2024-03-12T02:04:37.689Z,53.90
2024-03-12T02:05:40.561Z,53.92
2024-03-12T02:06:43.375Z,53.90
2024-03-12T02:08:58.256Z,54.03
2024-03-12T02:10:01.064Z,54.04
2024-03-12T02:11:03.805Z,54.00
2024-03-12T02:12:06.659Z,53.93
2024-03-12T02:13:09.295Z,54.00
2024-03-12T02:14:11.996Z,53.98
2024-03-12T02:15:15.224Z,53.97
2024-03-12T02:16:17.774Z,53.93
2024-03-12T02:17:20.417Z,54.01
2024-03-12T02:18:22.800Z,54.07
2024-03-12T02:19:25.195Z,54.10
2024-03-12T02:20:27.561Z,54.12
2024-03-12T02:21:29.876Z,54.18
2024-03-12T02:22:32.334Z,54.10
2024-03-12T02:24:45.202Z,54.08
2024-03-12T02:25:47.706Z,53.96
2024-03-12T02:26:50.185Z,53.97
2024-03-12T02:27:53.649Z,53.99
2024-03-12T02:28:56.756Z,54.05
2024-03-12T02:29:59.538Z,53.96
2024-03-12T02:31:02.105Z,54.01
2024-03-12T02:32:04.952Z,54.06
2024-03-12T02:33:07.668Z,54.11
2024-03-12T02:34:10.114Z,54.21
2024-03-12T02:35:13.063Z,54.32
2024-03-12T02:36:15.535Z,54.45
2024-03-12T02:37:18.405Z,54.47
2024-03-12T02:38:20.976Z,54.46
2024-03-12T02:39:23.374Z,54.46
2024-03-12T02:40:25.994Z,54.40
2024-03-12T02:41:28.469Z,54.30
2024-03-12T02:42:30.755Z,54.20
2024-03-12T02:43:33.202Z,54.20
2024-03-12T02:44:35.857Z,54.16
2024-03-12T02:45:38.254Z,54.11
2024-03-12T02:46:40.892Z,54.12
2024-03-12T02:47:43.492Z,54.09
2024-03-12T02:48:46.057Z,54.11
2024-03-12T02:49:48.592Z,54.15
2024-03-12T02:50:51.366Z,54.27
2024-03-12T02:51:53.748Z,54.37
2024-03-12T02:52:56.293Z,54.42
2024-03-12T02:53:58.658Z,54.45
2024-03-12T02:55:01.256Z,54.46
2024-03-12T02:56:05.022Z,54.49
2024-03-12T02:57:07.804Z,54.44
2024-03-12T02:58:10.355Z,54.35
2024-03-12T02:59:12.820Z,54.41
2024-03-12T03:00:16.588Z,54.42
2024-03-12T03:01:19.186Z,54.30
2024-03-12T03:02:21.649Z,54.42
2024-03-12T03:03:24.124Z,54.50
2024-03-12T03:04:26.369Z,54.60
2024-03-12T03:05:29.131Z,54.56
2024-03-12T03:06:31.641Z,54.56
2024-03-12T03:07:34.995Z,54.58
2024-03-12T03:08:37.460Z,54.64
2024-03-12T03:09:39.873Z,54.63
2024-03-12T03:10:42.656Z,54.60
2024-03-12T03:11:46.184Z,54.59
2024-03-12T03:12:48.898Z,54.63
2024-03-12T03:13:51.126Z,54.60
2024-03-12T03:14:53.599Z,54.59
2024-03-12T03:15:55.997Z,54.67
2024-03-12T03:16:58.925Z,54.62
2024-03-12T03:18:01.427Z,54.53
2024-03-12T03:19:03.813Z,54.60
2024-03-12T03:20:07.818Z,54.52
2024-03-12T03:21:10.167Z,54.50
2024-03-12T03:22:12.815Z,54.48
2024-03-12T03:23:15.037Z,54.43
2024-03-12T03:24:17.609Z,54.44
2024-03-12T03:25:22.830Z,54.56
2024-03-12T03:26:25.399Z,54.54
2024-03-12T03:27:27.911Z,54.57
2024-03-12T03:28:30.227Z,54.49
2024-03-12T03:29:34.616Z,54.48
2024-03-12T03:30:37.220Z,54.35
2024-03-12T03:31:39.599Z,54.39
2024-03-12T03:32:42.201Z,54.35
2024-03-12T03:33:45.000Z,54.41
2024-03-12T03:34:48.710Z,54.35
2024-03-12T03:35:51.294Z,54.32
2024-03-12T03:36:53.834Z,54.29
2024-03-12T03:37:56.296Z,54.23
2024-03-12T03:38:58.673Z,54.26
2024-03-12T03:40:04.096Z,54.30
2024-03-12T03:41:07.587Z,54.33
2024-03-12T03:42:10.093Z,54.37
2024-03-12T03:43:12.869Z,54.31
2024-03-12T03:44:15.385Z,54.21
2024-03-12T03:45:18.162Z,54.32
2024-03-12T03:46:20.795Z,54.35
2024-03-12T03:47:23.129Z,54.23
2024-03-12T03:48:25.419Z,54.21
2024-03-12T03:49:27.917Z,54.28
2024-03-12T03:50:30.522Z,54.35
2024-03-12T03:51:33.070Z,54.38
2024-03-12T03:52:35.519Z,54.36
2024-03-12T03:53:38.046Z,54.37
2024-03-12T03:54:40.518Z,54.32
2024-03-12T03:55:42.929Z,54.34
2024-03-12T03:56:45.648Z,54.35
2024-03-12T03:57:48.800Z,54.32
2024-03-12T03:58:51.248Z,54.33
2024-03-12T03:59:53.697Z,54.30
2024-03-12T04:00:56.227Z,54.30
2024-03-12T04:01:58.760Z,54.26
2024-03-12T04:03:01.102Z,54.27
2024-03-12T04:04:04.386Z,54.33
2024-03-12T04:05:08.167Z,54.27
2024-03-12T04:06:12.271Z,54.19
2024-03-12T04:07:14.833Z,54.16
2024-03-12T04:08:17.319Z,54.14
2024-03-12T04:09:19.731Z,54.22
2024-03-12T04:10:22.140Z,54.16
2024-03-12T04:11:24.694Z,54.17
2024-03-12T04:12:28.695Z,54.28
2024-03-12T04:13:31.790Z,54.39
2024-03-12T04:14:34.447Z,54.46
2024-03-12T04:15:36.952Z,54.44
2024-03-12T04:16:39.614Z,54.58
2024-03-12T04:17:42.053Z,54.60
2024-03-12T04:18:44.489Z,54.78
2024-03-12T04:19:46.883Z,54.92
2024-03-12T04:20:49.436Z,55.07
2024-03-12T04:21:51.929Z,55.13
2024-03-12T04:22:54.178Z,55.07
2024-03-12T04:23:56.668Z,55.15
2024-03-12T04:24:59.047Z,55.17
2024-03-12T04:26:01.457Z,55.12
2024-03-12T04:27:03.816Z,55.03
2024-03-12T04:28:06.521Z,55.04
2024-03-12T04:29:08.941Z,54.97
2024-03-12T04:30:12.776Z,54.94
2024-03-12T04:31:15.502Z,54.92
2024-03-12T04:32:18.096Z,54.90
2024-03-12T04:33:20.359Z,54.82
2024-03-12T04:34:22.815Z,54.86
2024-03-12T04:35:25.168Z,54.87
2024-03-12T04:36:27.833Z,54.85
2024-03-12T04:37:30.225Z,54.83
2024-03-12T04:38:33.380Z,54.82
2024-03-12T04:39:37.705Z,54.85
2024-03-12T04:40:40.776Z,54.81
2024-03-12T04:41:43.233Z,54.98
2024-03-12T04:42:45.622Z,55.11
2024-03-12T04:43:48.882Z,55.07
2024-03-12T04:44:51.650Z,55.06
2024-03-12T04:45:54.344Z,55.09
2024-03-12T04:46:56.595Z,55.01
2024-03-12T04:47:59.200Z,55.05
2024-03-12T04:49:01.666Z,54.93
2024-03-12T04:50:04.600Z,54.89
2024-03-12T04:51:07.058Z,54.90
2024-03-12T04:52:09.440Z,54.89
2024-03-12T04:53:11.899Z,54.92
2024-03-12T04:54:14.156Z,54.94
2024-03-12T04:55:16.848Z,55.01
2024-03-12T04:56:19.584Z,55.16
2024-03-12T04:57:21.951Z,55.26
2024-03-12T04:58:24.616Z,55.40
2024-03-12T04:59:27.097Z,55.54
2024-03-12T05:00:32.659Z,55.68
2024-03-12T05:01:35.910Z,55.78
2024-03-12T05:02:38.367Z,55.79
2024-03-12T05:03:40.964Z,55.88
2024-03-12T05:04:43.370Z,56.02
2024-03-12T05:05:45.955Z,55.98
2024-03-12T05:06:48.671Z,56.03
2024-03-12T05:07:52.041Z,56.11
2024-03-12T05:08:54.497Z,56.11
2024-03-12T05:09:57.011Z,56.19
2024-03-12T05:11:02.237Z,56.22
2024-03-12T05:12:04.444Z,56.18
2024-03-12T05:13:06.991Z,56.21
2024-03-12T05:14:09.464Z,56.14
2024-03-12T05:15:12.042Z,56.07
2024-03-12T05:16:15.583Z,56.14
2024-03-12T05:17:18.342Z,56.23
2024-03-12T05:18:21.259Z,56.30
2024-03-12T05:19:23.546Z,56.29
2024-03-12T05:20:26.202Z,56.40
2024-03-12T05:21:31.521Z,56.54
2024-03-12T05:22:33.599Z,56.56
2024-03-12T05:23:36.067Z,56.57
2024-03-12T05:24:38.341Z,56.54
2024-03-12T05:25:41.454Z,56.51
2024-03-12T05:26:46.951Z,56.53
2024-03-12T05:27:53.021Z,56.46
2024-03-12T05:28:57.416Z,56.40
2024-03-12T05:30:00.597Z,56.38
2024-03-12T05:31:04.049Z,56.28
2024-03-12T05:32:08.951Z,56.20
2024-03-12T05:33:12.973Z,56.29
2024-03-12T05:34:17.251Z,56.28
2024-03-12T05:35:21.206Z,56.35
2024-03-12T05:36:24.426Z,56.21
2024-03-12T05:37:27.682Z,56.20
2024-03-12T05:38:30.811Z,56.11
2024-03-12T05:39:34.890Z,56.05
2024-03-12T05:40:38.653Z,56.00
2024-03-12T05:41:42.028Z,56.04
2024-03-12T05:42:46.503Z,56.06
2024-03-12T05:43:51.509Z,56.04
2024-03-12T05:44:55.881Z,56.10
2024-03-12T05:45:59.578Z,56.14
2024-03-12T05:47:02.702Z,56.10
2024-03-12T05:48:06.172Z,56.04
2024-03-12T05:49:08.664Z,56.09
2024-03-12T05:50:12.038Z,56.05
2024-03-12T05:51:14.314Z,56.10
2024-03-12T05:52:16.734Z,56.12
2024-03-12T05:53:19.171Z,56.08
2024-03-12T05:54:21.541Z,56.08
2024-03-12T05:55:25.995Z,55.95
2024-03-12T05:56:28.823Z,55.81
2024-03-12T05:57:31.185Z,55.63
2024-03-12T05:58:33.852Z,55.69
2024-03-12T05:59:36.524Z,55.69
2024-03-12T06:00:39.116Z,55.70
2024-03-12T06:01:42.299Z,55.75
2024-03-12T06:02:44.830Z,55.65
2024-03-12T06:03:47.564Z,55.77
2024-03-12T06:04:50.179Z,55.61
2024-03-12T06:05:52.879Z,55.49
2024-03-12T06:06:56.123Z,55.49
2024-03-12T06:07:59.219Z,55.69
2024-03-12T06:09:01.815Z,55.46
2024-03-12T06:10:07.596Z,55.33
2024-03-12T06:11:10.942Z,55.29
2024-03-12T06:12:15.227Z,55.16
2024-03-12T06:13:19.413Z,55.22
2024-03-12T06:14:24.097Z,55.10
2024-03-12T06:15:28.176Z,55.02
2024-03-12T06:16:31.568Z,55.07
2024-03-12T06:17:35.047Z,55.13
2024-03-12T06:18:38.228Z,55.11
2024-03-12T06:19:40.654Z,55.02
2024-03-12T06:20:43.383Z,55.02
2024-03-12T06:21:45.849Z,54.96
2024-03-12T06:22:48.349Z,55.10
2024-03-12T06:23:50.940Z,55.19
2024-03-12T06:25:01.565Z,55.04
2024-03-12T06:26:04.957Z,54.96
2024-03-12T06:27:08.054Z,54.60
2024-03-12T06:28:11.291Z,54.54
2024-03-12T06:29:14.027Z,54.43
2024-03-12T06:30:17.916Z,54.49
2024-03-12T06:31:20.494Z,54.57
2024-03-12T06:32:22.949Z,54.59
2024-03-12T06:33:25.460Z,54.71
2024-03-12T06:34:27.957Z,54.69
2024-03-12T06:35:30.558Z,54.47
2024-03-12T06:36:32.991Z,54.18
2024-03-12T06:37:35.245Z,54.02
2024-03-12T06:38:37.565Z,54.05
2024-03-12T06:39:39.915Z,53.97
2024-03-12T06:40:42.858Z,53.88
2024-03-12T06:41:45.064Z,53.79
2024-03-12T06:42:47.769Z,53.68
2024-03-12T06:43:50.250Z,53.53
2024-03-12T06:44:52.699Z,53.76
2024-03-12T06:45:55.113Z,53.77
2024-03-12T06:46:57.644Z,53.84
2024-03-12T06:48:00.124Z,54.18
2024-03-12T06:49:02.561Z,54.07
2024-03-12T06:50:08.829Z,53.93
2024-03-12T06:51:11.546Z,53.77
2024-03-12T06:52:15.406Z,53.92
2024-03-12T06:53:17.979Z,53.81
2024-03-12T06:54:20.417Z,53.74
2024-03-12T06:55:25.192Z,53.76
2024-03-12T06:56:27.924Z,53.69
2024-03-12T06:57:30.348Z,53.54
2024-03-12T06:58:32.482Z,53.57
2024-03-12T06:59:35.379Z,53.57
2024-03-12T07:00:38.847Z,53.29
2024-03-12T07:01:42.254Z,53.29
2024-03-12T07:02:45.286Z,53.51
2024-03-12T07:03:49.837Z,53.62
2024-03-12T07:04:52.269Z,53.68
2024-03-12T07:05:56.179Z,53.46
2024-03-12T07:06:59.939Z,53.61
2024-03-12T07:08:05.374Z,53.80
2024-03-12T07:09:14.604Z,53.80
2024-03-12T07:10:16.832Z,53.88
2024-03-12T07:11:19.361Z,53.90
2024-03-12T07:12:21.872Z,53.81
2024-03-12T07:13:24.914Z,53.65
2024-03-12T07:14:27.533Z,53.50
2024-03-12T07:15:31.138Z,53.46
2024-03-12T07:16:33.680Z,53.51
2024-03-12T07:17:36.129Z,53.47
2024-03-12T07:18:38.649Z,53.43
2024-03-12T07:19:41.090Z,53.35
2024-03-12T07:20:43.604Z,53.35
2024-03-12T07:21:46.212Z,53.35
2024-03-12T07:22:49.392Z,53.44
2024-03-12T07:23:51.715Z,53.18
2024-03-12T07:24:54.111Z,53.12
2024-03-12T07:25:56.392Z,53.07
2024-03-12T07:27:02.093Z,53.05
2024-03-12T07:28:05.048Z,52.96
2024-03-12T07:29:07.723Z,52.94
2024-03-12T07:30:11.141Z,52.92
2024-03-12T07:31:13.890Z,53.02
2024-03-12T07:32:16.362Z,52.99
2024-03-12T07:33:18.646Z,52.96
2024-03-12T07:34:21.157Z,53.01
2024-03-12T07:35:24.057Z,53.16
2024-03-12T07:36:28.846Z,53.27
2024-03-12T07:37:36.142Z,53.44
2024-03-12T07:38:39.406Z,53.57
2024-03-12T07:39:41.961Z,53.71
2024-03-12T07:40:45.436Z,53.84
2024-03-12T07:41:48.524Z,54.00
2024-03-12T07:42:51.291Z,54.05
2024-03-12T07:43:53.648Z,54.00
2024-03-12T07:44:56.093Z,54.00
2024-03-12T07:45:58.467Z,53.89
2024-03-12T07:47:01.154Z,53.67
2024-03-12T07:48:04.264Z,53.55
2024-03-12T07:49:08.285Z,53.59
2024-03-12T07:50:12.835Z,53.50
2024-03-12T07:51:15.405Z,53.51
2024-03-12T07:52:17.945Z,53.35
2024-03-12T07:53:20.420Z,53.28
2024-03-12T07:54:22.806Z,53.45
2024-03-12T07:55:27.073Z,53.49
2024-03-12T07:56:30.471Z,53.39
2024-03-12T07:57:33.525Z,53.64
2024-03-12T07:58:36.121Z,53.71
2024-03-12T07:59:38.747Z,53.60
2024-03-12T08:00:41.263Z,53.53
2024-03-12T08:01:44.382Z,53.74
2024-03-12T08:02:46.903Z,53.75
2024-03-12T08:03:49.322Z,53.84
2024-03-12T08:04:51.936Z,53.84
2024-03-12T08:05:54.207Z,53.83
2024-03-12T08:06:56.888Z,53.93
2024-03-12T08:07:59.339Z,53.93
2024-03-12T08:09:01.760Z,53.98
2024-03-12T08:10:06.193Z,53.99
2024-03-12T08:11:08.550Z,54.08
2024-03-12T08:12:12.876Z,54.19
2024-03-12T08:13:16.973Z,54.24
2024-03-12T08:14:19.667Z,54.28
2024-03-12T08:15:22.007Z,54.39
2024-03-12T08:16:24.640Z,54.51
2024-03-12T08:17:26.933Z,54.52
2024-03-12T08:18:29.871Z,54.66
2024-03-12T08:19:33.625Z,54.65
2024-03-12T08:20:36.700Z,54.82
2024-03-12T08:21:39.803Z,55.03
2024-03-12T08:22:42.142Z,55.19
2024-03-12T08:23:44.789Z,55.21
2024-03-12T08:24:47.439Z,55.23
2024-03-12T08:25:56.422Z,55.36
2024-03-12T08:26:54.248Z,55.59
2024-03-12T08:27:56.660Z,55.83
2024-03-12T08:28:59.292Z,55.94
2024-03-12T08:30:01.692Z,55.97
2024-03-12T08:31:11.017Z,56.14
2024-03-12T08:32:08.600Z,56.19
2024-03-12T08:33:11.115Z,56.23
2024-03-12T08:34:13.829Z,56.22
2024-03-12T08:35:16.837Z,56.30
2024-03-12T08:36:19.602Z,56.38
2024-03-12T08:37:22.256Z,56.22
2024-03-12T08:38:25.094Z,56.26
2024-03-12T08:39:28.614Z,56.40
2024-03-12T08:40:32.122Z,56.56
2024-03-12T08:41:34.793Z,56.58
2024-03-12T08:42:44.890Z,56.78
2024-03-12T08:43:41.922Z,56.85
2024-03-12T08:44:44.346Z,56.81
2024-03-12T08:45:46.834Z,56.78
2024-03-12T08:46:49.465Z,56.92
2024-03-12T08:47:51.759Z,56.95
2024-03-12T08:48:54.282Z,56.94
2024-03-12T08:49:56.751Z,56.75
2024-03-12T08:50:59.844Z,56.74
2024-03-12T08:52:02.448Z,56.83
2024-03-12T08:53:04.981Z,56.91
2024-03-12T08:54:09.301Z,56.96
2024-03-12T08:55:11.778Z,56.98
2024-03-12T08:56:14.553Z,56.92
2024-03-12T08:57:17.183Z,56.82
2024-03-12T08:58:19.555Z,56.82
2024-03-12T08:59:22.187Z,56.79
2024-03-12T09:00:24.785Z,56.91
2024-03-12T09:01:27.624Z,56.90
2024-03-12T09:02:30.462Z,56.68
2024-03-12T09:03:33.417Z,56.63
2024-03-12T09:04:37.475Z,56.60
2024-03-12T09:05:40.073Z,56.69
2024-03-12T09:06:42.753Z,56.63
2024-03-12T09:07:45.217Z,56.64
2024-03-12T09:08:47.674Z,56.79
2024-03-12T09:09:52.511Z,56.81
2024-03-12T09:10:54.719Z,56.80
2024-03-12T09:11:57.403Z,56.67
2024-03-12T09:13:00.970Z,56.57
2024-03-12T09:14:04.472Z,56.52
2024-03-12T09:15:07.888Z,56.57
2024-03-12T09:16:11.055Z,56.39
2024-03-12T09:17:13.740Z,56.33
2024-03-12T09:18:16.436Z,56.39
2024-03-12T09:19:18.985Z,56.48
2024-03-12T09:20:22.165Z,56.63
2024-03-12T09:21:24.727Z,56.57
2024-03-12T09:22:27.105Z,56.51
2024-03-12T09:23:29.617Z,56.66
2024-03-12T09:24:32.056Z,56.69
2024-03-12T09:25:34.404Z,56.72
2024-03-12T09:26:37.274Z,56.86
2024-03-12T09:27:39.975Z,56.81
2024-03-12T09:28:43.097Z,56.81
2024-03-12T09:29:45.574Z,56.85
2024-03-12T09:30:48.283Z,56.78
2024-03-12T09:31:50.919Z,56.66
2024-03-12T09:32:54.878Z,56.68
2024-03-12T09:33:57.869Z,56.68
2024-03-12T09:35:00.922Z,56.45
2024-03-12T09:36:04.367Z,56.34
2024-03-12T09:37:08.289Z,56.26
2024-03-12T09:38:11.544Z,56.42
2024-03-12T09:39:13.903Z,56.52
2024-03-12T09:40:16.802Z,56.58
2024-03-12T09:41:21.290Z,56.53
2024-03-12T09:42:25.522Z,56.49
2024-03-12T09:43:30.927Z,56.55
2024-03-12T09:44:39.044Z,56.57
2024-03-12T09:45:41.848Z,56.43
2024-03-12T09:46:44.627Z,56.27
2024-03-12T09:47:47.040Z,56.35
2024-03-12T09:48:51.130Z,56.30
2024-03-12T09:49:53.897Z,56.25
2024-03-12T09:50:58.520Z,56.19
2024-03-12T09:52:02.244Z,56.06
2024-03-12T09:53:04.772Z,56.17
2024-03-12T09:54:07.342Z,56.40
2024-03-12T09:55:10.926Z,56.12
2024-03-12T09:56:14.285Z,56.00
2024-03-12T09:57:17.528Z,55.87
2024-03-12T09:58:20.418Z,55.82
2024-03-12T09:59:23.161Z,55.76
2024-03-12T10:00:26.259Z,55.67
2024-03-12T10:01:49.217Z,55.62
2024-03-12T10:02:52.361Z,55.62
2024-03-12T10:03:55.237Z,55.51
2024-03-12T10:04:57.761Z,55.49
2024-03-12T10:06:00.196Z,55.47
2024-03-12T10:07:02.667Z,55.53
2024-03-12T10:08:11.032Z,55.53
2024-03-12T10:09:13.402Z,55.44
2024-03-12T10:10:17.760Z,55.53
2024-03-12T10:11:20.896Z,55.29
2024-03-12T10:12:23.446Z,55.23
2024-03-12T10:13:25.916Z,55.31
2024-03-12T10:14:28.896Z,55.27
2024-03-12T10:15:32.063Z,55.21
2024-03-12T10:16:34.657Z,55.27
2024-03-12T10:17:37.250Z,55.38
2024-03-12T10:18:39.728Z,55.36
2024-03-12T10:19:47.031Z,55.37
2024-03-12T10:20:51.780Z,55.45
2024-03-12T10:21:54.300Z,55.41
2024-03-12T10:23:07.136Z,55.37
2024-03-12T10:24:12.271Z,55.33
2024-03-12T10:25:14.685Z,55.34
2024-03-12T10:26:17.944Z,55.42
2024-03-12T10:27:20.692Z,55.22
2024-03-12T10:28:24.451Z,55.40
2024-03-12T10:29:30.387Z,55.45
2024-03-12T10:30:32.951Z,55.43
2024-03-12T10:31:35.669Z,55.64
2024-03-12T10:32:38.152Z,55.76
2024-03-12T10:33:45.194Z,55.49
2024-03-12T10:34:48.478Z,55.50
2024-03-12T10:35:50.948Z,55.58
2024-03-12T10:36:53.361Z,55.47
2024-03-12T10:37:55.981Z,55.35
2024-03-12T10:38:59.675Z,55.29
2024-03-12T10:40:15.166Z,55.48
2024-03-12T10:41:19.272Z,55.44
2024-03-12T10:42:24.818Z,55.51
2024-03-12T10:43:27.311Z,55.36
2024-03-12T10:44:32.569Z,55.61
2024-03-12T10:45:35.916Z,55.81
2024-03-12T10:47:49.826Z,56.10
2024-03-12T10:48:55.515Z,56.32
2024-03-12T10:49:59.141Z,56.50
2024-03-12T10:51:02.379Z,56.92
2024-03-12T10:52:05.719Z,57.04
2024-03-12T10:53:10.729Z,57.28
2024-03-12T10:54:16.820Z,57.24
2024-03-12T10:55:22.521Z,57.16
2024-03-12T10:56:25.188Z,57.01
2024-03-12T10:57:29.322Z,57.35
2024-03-12T10:58:33.924Z,57.47
2024-03-12T10:59:36.990Z,57.31
2024-03-12T11:00:39.790Z,57.43
2024-03-12T11:02:55.763Z,57.53
2024-03-12T11:04:00.273Z,57.60
2024-03-12T11:05:03.041Z,57.59
2024-03-12T11:06:07.707Z,57.93
2024-03-12T11:07:10.720Z,58.17
2024-03-12T11:08:14.183Z,58.34
2024-03-12T11:09:16.686Z,58.35
2024-03-12T11:10:20.396Z,58.19
2024-03-12T11:11:23.787Z,58.40
2024-03-12T11:12:26.944Z,58.45
2024-03-12T11:13:29.358Z,58.62
2024-03-12T11:14:32.175Z,59.11
2024-03-12T11:15:36.130Z,58.69
2024-03-12T11:16:38.961Z,58.83
2024-03-12T11:17:49.174Z,58.20
2024-03-12T11:18:52.328Z,58.26
2024-03-12T11:20:02.867Z,58.47
2024-03-12T11:21:04.537Z,58.75
2024-03-12T11:22:11.734Z,58.63
2024-03-12T11:23:14.775Z,58.35
2024-03-12T11:24:27.867Z,58.60
2024-03-12T11:26:51.959Z,58.82
2024-03-12T11:28:16.842Z,59.22
2024-03-12T11:29:19.388Z,59.08
2024-03-12T11:30:25.947Z,58.33
2024-03-12T11:31:39.685Z,58.26
2024-03-12T11:32:47.593Z,58.09
2024-03-12T11:33:51.507Z,58.30
2024-03-12T11:34:55.424Z,58.08
2024-03-12T11:35:59.760Z,58.26
2024-03-12T11:37:14.546Z,58.08
2024-03-12T11:38:18.841Z,58.17
2024-03-12T11:39:24.948Z,58.12
2024-03-12T11:40:32.674Z,57.90
2024-03-12T11:42:02.120Z,58.27
2024-03-12T11:43:04.961Z,58.65
2024-03-12T11:44:08.291Z,59.29
2024-03-12T11:45:32.115Z,59.28
2024-03-12T11:46:42.434Z,59.69
2024-03-12T11:47:58.270Z,60.21
2024-03-12T11:49:01.014Z,60.52
2024-03-12T11:50:05.320Z,60.79
2024-03-12T11:51:10.932Z,61.15
2024-03-12T11:52:17.036Z,61.44
2024-03-12T11:53:25.075Z,61.52
2024-03-12T11:56:12.573Z,61.95
2024-03-12T11:57:28.727Z,61.74
2024-03-12T11:58:34.228Z,61.68
2024-03-12T11:59:36.891Z,61.83
2024-03-12T12:00:40.120Z,61.77
2024-03-12T12:01:43.588Z,61.89
2024-03-12T12:02:46.762Z,62.20
2024-03-12T12:04:01.989Z,62.95
2024-03-12T12:05:05.328Z,63.05
2024-03-12T12:06:09.359Z,63.32
2024-03-12T12:07:15.341Z,63.85
2024-03-12T12:08:19.327Z,64.27
2024-03-12T12:09:21.919Z,64.86
2024-03-12T12:10:25.213Z,65.53
2024-03-12T12:11:28.207Z,66.38
2024-03-12T12:12:31.235Z,67.25
2024-03-12T12:13:34.001Z,68.14
2024-03-12T12:14:37.102Z,68.71
2024-03-12T12:15:39.604Z,69.36
2024-03-12T12:16:42.250Z,70.22
2024-03-12T12:17:44.760Z,70.81
2024-03-12T12:18:47.086Z,71.75
2024-03-12T12:20:06.332Z,71.97
2024-03-12T12:21:15.780Z,72.25
2024-03-12T12:22:18.304Z,72.68
2024-03-12T12:23:21.146Z,73.08
2024-03-12T12:24:24.755Z,73.36
2024-03-12T12:25:28.950Z,73.78
2024-03-12T12:26:32.167Z,74.04
2024-03-12T12:27:35.151Z,74.01
2024-03-12T12:28:37.476Z,74.15
2024-03-12T12:29:39.933Z,74.41
2024-03-12T12:30:43.787Z,74.72
2024-03-12T12:31:46.884Z,74.72
2024-03-12T12:32:51.597Z,74.94
2024-03-12T12:33:55.141Z,75.18
2024-03-12T12:34:59.874Z,75.35
2024-03-12T12:36:09.541Z,75.57
2024-03-12T12:37:12.200Z,75.75
2024-03-12T12:38:15.370Z,76.05
2024-03-12T12:39:18.079Z,76.21
2024-03-12T12:40:21.767Z,76.35
2024-03-12T12:41:24.596Z,76.39
2024-03-12T12:42:27.160Z,76.46
2024-03-12T12:43:34.357Z,76.58
2024-03-12T12:44:36.814Z,76.56
2024-03-12T12:45:39.618Z,76.57
2024-03-12T12:46:43.134Z,76.67
2024-03-12T12:47:48.765Z,76.67
2024-03-12T12:48:51.507Z,76.62
2024-03-12T12:49:54.006Z,76.68
2024-03-12T12:50:57.646Z,76.51
2024-03-12T12:52:00.118Z,76.45
2024-03-12T12:53:03.440Z,76.30
2024-03-12T12:54:06.056Z,76.29
2024-03-12T12:55:09.116Z,76.33
2024-03-12T12:56:11.806Z,76.36
2024-03-12T12:57:14.382Z,76.35
2024-03-12T12:58:20.434Z,76.31
2024-03-12T12:59:23.112Z,76.33
2024-03-12T13:00:25.774Z,76.26
2024-03-12T13:01:28.865Z,76.38
2024-03-12T13:02:31.282Z,76.61
2024-03-12T13:04:44.961Z,77.10
2024-03-12T13:05:48.021Z,77.32
2024-03-12T13:06:55.173Z,77.43
2024-03-12T13:07:58.994Z,77.43
2024-03-12T13:09:01.573Z,77.41
2024-03-12T13:10:11.356Z,77.18
2024-03-12T13:11:17.466Z,77.01
2024-03-12T13:12:20.064Z,76.82
2024-03-12T13:13:22.728Z,76.92
2024-03-12T13:14:25.247Z,76.94
2024-03-12T13:15:29.826Z,77.04
2024-03-12T13:16:32.530Z,77.21
2024-03-12T13:17:35.038Z,77.37
2024-03-12T13:18:39.920Z,77.42
2024-03-12T13:19:43.018Z,77.31
2024-03-12T13:20:49.951Z,77.38
2024-03-12T13:21:52.585Z,77.40
2024-03-12T13:22:55.276Z,77.17
2024-03-12T13:23:58.236Z,76.92
2024-03-12T13:25:00.596Z,76.79
2024-03-12T13:26:04.290Z,76.73
2024-03-12T13:27:06.525Z,76.62
2024-03-12T13:28:08.963Z,76.58
2024-03-12T13:29:11.540Z,76.70
2024-03-12T13:30:14.981Z,76.81
2024-03-12T13:31:17.892Z,76.83
2024-03-12T13:32:20.682Z,76.84
2024-03-12T13:33:23.537Z,76.89
2024-03-12T13:34:29.359Z,76.97
2024-03-12T13:35:32.702Z,77.02
2024-03-12T13:36:35.369Z,77.03
2024-03-12T13:37:40.544Z,77.02
2024-03-12T13:38:43.346Z,76.97
2024-03-12T13:39:45.750Z,76.78
2024-03-12T13:40:48.269Z,76.81
2024-03-12T13:41:50.595Z,76.97
2024-03-12T13:42:56.382Z,77.17
2024-03-12T13:43:59.759Z,77.19
2024-03-12T13:45:02.200Z,76.98
2024-03-12T13:46:05.528Z,76.76
2024-03-12T13:47:08.233Z,76.57
2024-03-12T13:48:11.081Z,76.38